Ct Longford — 9HYM9 — position and weather

sailwx.info

Track history (hours):
 
Tides and Currents Weather Stations Pressure Air Temp Water Temp Dewpoint Dewpoint Depression Visibility Wind Speed Wind Dir Waves Ship Positions

Ct Longford

Last reported at 2015-Aug-01 12:22 UTC. Time now 2015-Aug-02 02:20 UTC.
Position N 16°27' W 062°42'.

Length 117 m; draft 5.4 m.

Type: Ship (hazmat cat A). MMSI: 249706000.

Date/timePositionNaut miles runAvg speedWind from/ knotsBaromVisibWave heightAir tempDewpointWater temp
2015-Aug-01 12:22N 16°27' W 062°42'1112.1
2015-Aug-01 11:29N 16°17' W 062°39'12011.8
2015-Aug-01 01:19N 14°25' W 061°53'1012.4
2015-Aug-01 00:32N 14°18' W 061°46'1212.7
2015-Jul-31 23:33N 14°09' W 061°37'1312.7
2015-Jul-31 22:33N 13°59' W 061°29'  
2015-Jul-24 15:23N 14°05' W 061°27'810.0
2015-Jul-24 14:34N 14°13' W 061°30'7 7.0
2015-Jul-24 13:33N 14°19' W 061°34'1010.5
2015-Jul-24 12:33N 14°28' W 061°38'1111.0
2015-Jul-24 11:33N 14°39' W 061°42'  
Track history (hours):
 
Tides and Currents Weather Stations Pressure Air Temp Water Temp Dewpoint Dewpoint Depression Visibility Wind Speed Wind Dir Waves Ship Positions

Ct Longford

Last reported at 2015-Aug-01 12:22 UTC. Time now 2015-Aug-02 02:20 UTC.
Position N 16°27' W 062°42'.

Length 117 m; draft 5.4 m.

Type: Ship (hazmat cat A). MMSI: 249706000.

Date/timePositionNaut miles runAvg speedWind from/ knotsBaromVisibWave heightAir tempDewpointWater temp
2015-Aug-01 12:22N 16°27' W 062°42'1112.1
2015-Aug-01 11:29N 16°17' W 062°39'12011.8
2015-Aug-01 01:19N 14°25' W 061°53'1012.4
2015-Aug-01 00:32N 14°18' W 061°46'1212.7
2015-Jul-31 23:33N 14°09' W 061°37'1312.7
2015-Jul-31 22:33N 13°59' W 061°29'  
2015-Jul-24 15:23N 14°05' W 061°27'810.0
2015-Jul-24 14:34N 14°13' W 061°30'7 7.0
2015-Jul-24 13:33N 14°19' W 061°34'1010.5
2015-Jul-24 12:33N 14°28' W 061°38'1111.0
2015-Jul-24 11:33N 14°39' W 061°42'  

Dump ship's entire track history